Time;durP1;ratioP1;P1;durP2;ratioP2;P2;SDS_P1;SDS_P2;PMS_P1;PMS_P2;Temp;Humidity;BMP_temperature;BMP_pressure;BME280_temperature;BME280_humidity;BME280_pressure;Samples;Min_cycle;Max_cycle;Signal;HPM_P1;HPM_P2
2022/09/21 00:00:32;;;;;;;2.17;0.73;;;7.20;99.90;;;;;;5058227;28;20086;-82
2022/09/21 00:02:57;;;;;;;1.90;0.90;;;7.30;99.90;;;;;;5056798;28;20099;-81
2022/09/21 00:05:24;;;;;;;2.67;0.82;;;7.30;99.90;;;;;;5074978;28;20043;-81
2022/09/21 00:07:50;;;;;;;4.15;1.08;;;7.30;99.90;;;;;;5056918;28;20490;-81
2022/09/21 00:10:18;;;;;;;2.33;1.15;;;7.20;99.90;;;;;;5075338;28;20090;-82
2022/09/21 00:12:47;;;;;;;3.03;1.15;;;7.10;99.90;;;;;;5057073;28;20390;-81
2022/09/21 00:15:15;;;;;;;2.22;1.00;;;7.00;99.90;;;;;;5075520;28;20444;-82
2022/09/21 00:17:41;;;;;;;1.98;1.20;;;7.00;99.90;;;;;;5075530;28;20056;-81
2022/09/21 00:20:07;;;;;;;3.28;1.13;;;7.00;99.90;;;;;;5073679;28;20052;-82
2022/09/21 00:22:33;;;;;;;2.75;1.50;;;6.90;99.90;;;;;;5057310;28;20036;-81
2022/09/21 00:25:01;;;;;;;3.20;1.55;;;6.90;99.90;;;;;;5074029;28;20028;-81
2022/09/21 00:27:28;;;;;;;2.63;1.60;;;6.90;99.90;;;;;;5071247;28;20052;-82
2022/09/21 00:30:05;;;;;;;4.20;1.70;;;6.90;99.90;;;;;;5053845;28;20395;-81
2022/09/21 00:32:32;;;;;;;3.15;1.70;;;7.00;99.90;;;;;;5056332;28;20020;-81
2022/09/21 00:34:59;;;;;;;3.60;1.67;;;7.00;99.90;;;;;;5075376;28;20025;-82
2022/09/21 00:37:26;;;;;;;2.40;1.40;;;7.10;99.90;;;;;;5073022;28;20064;-82
2022/09/21 00:39:52;;;;;;;3.92;1.35;;;7.10;99.90;;;;;;5074611;28;20028;-82
2022/09/21 00:42:22;;;;;;;2.67;1.30;;;7.10;99.90;;;;;;5040228;28;20025;-82
2022/09/21 00:44:47;;;;;;;3.03;1.70;;;7.20;99.90;;;;;;5075090;28;20542;-82
2022/09/21 00:47:17;;;;;;;3.80;1.80;;;7.20;99.90;;;;;;5057061;28;20028;-82
2022/09/21 00:49:48;;;;;;;3.95;1.65;;;7.20;99.90;;;;;;5053998;28;20025;-82
2022/09/21 00:52:16;;;;;;;3.53;2.00;;;7.20;99.90;;;;;;5056522;28;20036;-81
2022/09/21 00:54:52;;;;;;;3.35;1.60;;;7.20;99.90;;;;;;5039705;28;20396;-81
2022/09/21 00:57:21;;;;;;;2.83;1.60;;;7.10;99.90;;;;;;5056790;28;20020;-82
2022/09/21 00:59:49;;;;;;;4.00;1.80;;;7.10;99.90;;;;;;5073137;28;20104;-82
2022/09/21 01:02:16;;;;;;;3.10;1.67;;;7.10;99.90;;;;;;5074673;28;20025;-82
2022/09/21 01:04:42;;;;;;;3.03;1.60;;;7.10;99.90;;;;;;5074959;28;20031;-82
2022/09/21 01:07:16;;;;;;;3.10;1.90;;;7.10;99.90;;;;;;5056500;28;20028;-82
2022/09/21 01:09:43;;;;;;;4.30;1.90;;;7.00;99.90;;;;;;5074282;28;20031;-82
2022/09/21 01:12:35;;;;;;;2.97;1.85;;;7.00;99.90;;;;;;5057150;28;20508;-82
2022/09/21 01:15:39;;;;;;;3.10;1.63;;;7.00;99.90;;;;;;5030124;28;20071;-82
2022/09/21 01:18:11;;;;;;;3.92;1.88;;;7.00;99.90;;;;;;5012633;28;20034;-81
2022/09/21 01:21:04;;;;;;;3.10;2.20;;;6.90;99.90;;;;;;5064224;28;20106;-82
2022/09/21 01:23:53;;;;;;;3.03;1.95;;;6.90;99.90;;;;;;5056857;28;20031;-82
2022/09/21 01:26:57;;;;;;;3.25;2.05;;;6.90;99.90;;;;;;5056388;28;20059;-82
2022/09/21 01:29:37;;;;;;;3.17;2.20;;;7.00;99.90;;;;;;5040038;28;20520;-82
2022/09/21 01:32:08;;;;;;;5.15;2.45;;;6.90;99.90;;;;;;5073531;28;20043;-81
2022/09/21 01:34:44;;;;;;;5.30;2.40;;;6.90;99.90;;;;;;5056340;28;20024;-82
2022/09/21 01:37:18;;;;;;;2.70;1.90;;;6.80;99.90;;;;;;5074157;28;20166;-82
2022/09/21 01:39:49;;;;;;;4.18;2.17;;;6.80;99.90;;;;;;5056295;28;20192;-82
2022/09/21 01:42:18;;;;;;;3.97;1.88;;;6.90;99.90;;;;;;5056160;28;20021;-82
2022/09/21 01:44:46;;;;;;;4.40;2.17;;;6.90;99.90;;;;;;5056266;28;20035;-82
2022/09/21 01:47:13;;;;;;;4.03;2.38;;;6.90;99.90;;;;;;5073770;28;20032;-81
2022/09/21 01:49:46;;;;;;;3.78;1.67;;;6.90;99.90;;;;;;5074002;28;20032;-81
2022/09/21 01:52:21;;;;;;;4.53;1.75;;;6.80;99.90;;;;;;5073979;28;20032;-82
2022/09/21 01:54:51;;;;;;;4.53;2.10;;;6.80;99.90;;;;;;5073957;28;20023;-82
2022/09/21 01:57:27;;;;;;;3.35;1.83;;;6.70;99.90;;;;;;5055832;28;20021;-82
2022/09/21 01:59:58;;;;;;;3.80;1.90;;;6.70;99.90;;;;;;5073493;28;20082;-81
2022/09/21 02:02:47;;;;;;;2.83;1.67;;;6.70;99.90;;;;;;5055489;28;20032;-82
2022/09/21 02:05:16;;;;;;;3.30;1.80;;;6.80;99.90;;;;;;5073801;28;20415;-82
2022/09/21 02:07:42;;;;;;;2.55;1.55;;;6.80;99.90;;;;;;5073560;28;20039;-82
2022/09/21 02:10:14;;;;;;;5.18;2.30;;;6.80;99.90;;;;;;5073249;28;20043;-82
2022/09/21 02:12:39;;;;;;;4.28;1.52;;;6.90;99.90;;;;;;5073481;28;20025;-82
2022/09/21 02:15:06;;;;;;;3.40;1.83;;;6.80;99.90;;;;;;5038335;28;20391;-81
2022/09/21 02:18:06;;;;;;;3.67;2.05;;;6.80;99.90;;;;;;5071073;28;20020;-81
2022/09/21 02:20:39;;;;;;;3.50;1.90;;;6.80;99.90;;;;;;5068075;28;20028;-82
2022/09/21 02:23:05;;;;;;;3.42;1.58;;;6.90;99.90;;;;;;5053471;28;20074;-81
2022/09/21 02:25:39;;;;;;;3.15;1.80;;;6.80;99.90;;;;;;5053626;28;20032;-82
2022/09/21 02:28:20;;;;;;;3.10;1.80;;;6.90;99.90;;;;;;5073378;28;20032;-82
2022/09/21 02:31:12;;;;;;;3.35;1.83;;;6.90;99.90;;;;;;5069760;28;20025;-82
2022/09/21 02:33:54;;;;;;;4.10;2.05;;;6.90;99.90;;;;;;5041867;28;20115;-82
2022/09/21 02:36:32;;;;;;;2.30;1.38;;;6.90;99.90;;;;;;5054483;28;20027;-82
2022/09/21 02:39:17;;;;;;;4.35;1.95;;;6.90;99.90;;;;;;5073052;28;20020;-82
2022/09/21 02:42:11;;;;;;;2.60;1.70;;;6.90;99.90;;;;;;5055142;28;20111;-82
2022/09/21 02:44:51;;;;;;;4.60;1.75;;;6.90;99.90;;;;;;5072146;28;20495;-82
2022/09/21 02:47:22;;;;;;;3.13;1.73;;;7.00;99.90;;;;;;5054380;28;20035;-82
2022/09/21 02:49:53;;;;;;;3.10;1.27;;;6.90;99.90;;;;;;5052918;28;20036;-82
2022/09/21 02:52:20;;;;;;;2.65;1.33;;;6.90;99.90;;;;;;5071571;28;20027;-82
2022/09/21 02:54:50;;;;;;;3.38;1.10;;;6.90;99.90;;;;;;5055043;28;20041;-82
2022/09/21 02:57:20;;;;;;;5.05;1.30;;;6.90;99.90;;;;;;5054917;28;20476;-82
2022/09/21 02:59:46;;;;;;;3.13;1.08;;;7.00;99.90;;;;;;5049755;28;20040;-82
2022/09/21 03:02:13;;;;;;;3.67;1.20;;;7.00;99.90;;;;;;5034710;28;20029;-82
2022/09/21 03:04:46;;;;;;;7.97;3.08;;;7.00;99.90;;;;;;5071283;28;20033;-82
2022/09/21 03:07:16;;;;;;;6.90;3.22;;;7.00;99.90;;;;;;5072837;28;20020;-82
2022/09/21 03:09:42;;;;;;;6.53;2.40;;;7.00;99.90;;;;;;5072995;28;20032;-82
2022/09/21 03:12:07;;;;;;;3.92;1.55;;;6.90;99.90;;;;;;5072996;28;20025;-82
2022/09/21 03:14:33;;;;;;;1.92;1.05;;;7.00;99.90;;;;;;5055412;28;20033;-81
2022/09/21 03:16:59;;;;;;;2.78;1.08;;;6.90;99.90;;;;;;5038459;28;20028;-81
2022/09/21 03:19:25;;;;;;;2.90;1.20;;;6.90;99.90;;;;;;5055116;28;20100;-81
2022/09/21 03:21:53;;;;;;;2.78;1.40;;;6.90;99.90;;;;;;5055074;28;20037;-81
2022/09/21 03:24:44;;;;;;;9.25;3.97;;;6.90;99.90;;;;;;5038512;28;20032;-81
2022/09/21 03:27:05;;;;;;;5.15;2.60;;;6.90;99.90;;;;;;5037893;28;20086;-82
2022/09/21 03:29:30;;;;;;;3.22;1.75;;;6.80;99.90;;;;;;5049250;28;20496;-81
2022/09/21 03:31:56;;;;;;;2.15;1.40;;;6.80;99.90;;;;;;5034965;28;20061;-81
2022/09/21 03:34:22;;;;;;;1.88;1.10;;;6.80;99.90;;;;;;5038476;28;20111;-82
2022/09/21 03:36:48;;;;;;;2.33;1.30;;;6.70;99.90;;;;;;5035617;28;20393;-81
2022/09/21 03:39:14;;;;;;;2.85;1.20;;;6.70;99.90;;;;;;5048318;28;20032;-82
2022/09/21 03:41:39;;;;;;;3.55;1.45;;;6.70;99.90;;;;;;5053989;28;20098;-81
2022/09/21 03:44:05;;;;;;;2.40;1.33;;;6.70;99.90;;;;;;5055163;28;20060;-82
2022/09/21 03:46:34;;;;;;;2.50;1.55;;;6.60;99.90;;;;;;5035434;28;20029;-82
2022/09/21 03:49:01;;;;;;;4.20;2.28;;;6.60;99.90;;;;;;5036283;28;20511;-81
2022/09/21 03:51:26;;;;;;;3.20;2.13;;;6.60;99.90;;;;;;5049404;28;20453;-81
2022/09/21 03:53:52;;;;;;;2.67;1.80;;;6.50;99.90;;;;;;5038939;28;20063;-82
2022/09/21 03:56:18;;;;;;;2.92;1.75;;;6.50;99.90;;;;;;5015784;28;20025;-83
2022/09/21 03:58:43;;;;;;;3.83;1.85;;;6.50;99.90;;;;;;5022892;28;20032;-82
2022/09/21 04:01:09;;;;;;;2.40;1.75;;;6.40;99.90;;;;;;5025539;28;20369;-82
2022/09/21 04:03:35;;;;;;;2.97;2.08;;;6.40;99.90;;;;;;5058367;28;20024;-82
2022/09/21 04:06:08;;;;;;;3.58;1.50;;;6.40;99.90;;;;;;5025412;28;20021;-82
2022/09/21 04:08:34;;;;;;;2.47;1.50;;;6.40;99.90;;;;;;5038357;28;20033;-82
2022/09/21 04:11:00;;;;;;;2.95;1.70;;;6.40;99.90;;;;;;5040482;28;20025;-82
2022/09/21 04:13:25;;;;;;;2.75;1.85;;;6.50;99.90;;;;;;5021700;28;20029;-82
2022/09/21 04:15:51;;;;;;;1.85;1.20;;;6.50;99.90;;;;;;5049386;28;20510;-81
2022/09/21 04:18:17;;;;;;;2.70;1.42;;;6.50;99.90;;;;;;5021642;28;20029;-81
2022/09/21 04:20:43;;;;;;;2.40;1.60;;;6.60;99.90;;;;;;5013265;28;20053;-84
2022/09/21 04:23:08;;;;;;;5.18;3.03;;;6.60;99.90;;;;;;5055479;28;20060;-84
2022/09/21 04:25:34;;;;;;;22.92;12.27;;;6.70;99.90;;;;;;5041203;28;20032;-84
2022/09/21 04:28:00;;;;;;;26.17;15.32;;;6.70;99.90;;;;;;5040775;28;20035;-84
2022/09/21 04:30:26;;;;;;;21.15;11.88;;;6.70;99.90;;;;;;5050238;28;20024;-83
2022/09/21 04:32:52;;;;;;;16.67;9.25;;;6.80;99.90;;;;;;5024050;28;20079;-84
2022/09/21 04:35:18;;;;;;;9.77;6.03;;;6.70;99.90;;;;;;5040934;28;20029;-83
2022/09/21 04:37:46;;;;;;;7.07;4.50;;;6.70;99.90;;;;;;5057417;28;20028;-84
2022/09/21 04:40:12;;;;;;;4.97;3.53;;;6.70;99.90;;;;;;5041247;28;20052;-84
2022/09/21 04:42:37;;;;;;;5.72;3.08;;;6.80;99.90;;;;;;5056830;28;20427;-83
2022/09/21 04:45:04;;;;;;;4.95;2.75;;;6.70;99.90;;;;;;5023742;28;20071;-84
2022/09/21 04:47:30;;;;;;;3.80;2.17;;;6.80;99.90;;;;;;5038377;28;20032;-84
2022/09/21 04:49:56;;;;;;;4.25;2.53;;;6.80;99.90;;;;;;5055511;28;20060;-84
2022/09/21 04:52:22;;;;;;;29.50;14.98;;;6.70;99.90;;;;;;5023769;28;20492;-84
2022/09/21 04:54:47;;;;;;;26.17;13.65;;;6.70;99.90;;;;;;5039758;28;20028;-82
2022/09/21 04:57:14;;;;;;;11.20;6.90;;;6.60;99.90;;;;;;5056842;28;20077;-84
2022/09/21 04:59:39;;;;;;;9.10;6.50;;;6.60;99.90;;;;;;5056666;28;20375;-83
2022/09/21 05:02:05;;;;;;;9.80;7.80;;;6.50;99.90;;;;;;5056843;28;20040;-84
2022/09/21 05:04:31;;;;;;;10.27;8.10;;;6.40;99.90;;;;;;5039033;28;20044;-83
2022/09/21 05:06:58;;;;;;;7.57;6.45;;;6.40;99.90;;;;;;5053638;28;20423;-83
2022/09/21 05:12:08;;;;;;;8.98;6.20;;;6.30;99.90;;;;;;5059934;28;20094;-83
2022/09/21 05:14:35;;;;;;;5.95;4.68;;;6.30;99.90;;;;;;5056507;28;20040;-84
2022/09/21 05:17:01;;;;;;;6.05;4.03;;;6.20;99.90;;;;;;5039719;28;20568;-83
2022/09/21 05:19:26;;;;;;;4.88;3.17;;;6.20;99.90;;;;;;5039260;28;20040;-84
2022/09/21 05:21:52;;;;;;;5.35;2.78;;;6.30;99.90;;;;;;5055343;28;20027;-83
2022/09/21 05:24:17;;;;;;;4.10;2.47;;;6.30;99.90;;;;;;5039835;28;20041;-84
2022/09/21 05:26:43;;;;;;;2.70;1.90;;;6.30;99.90;;;;;;5021790;28;20029;-84
2022/09/21 05:29:09;;;;;;;4.45;2.70;;;6.30;99.90;;;;;;5023346;28;20484;-83
2022/09/21 05:31:50;;;;;;;4.20;2.78;;;6.20;99.90;;;;;;5055143;28;20396;-84
2022/09/21 05:34:37;;;;;;;3.83;2.33;;;6.10;99.90;;;;;;5073763;28;20036;-84
2022/09/21 05:37:23;;;;;;;4.45;2.20;;;6.10;99.90;;;;;;5053069;28;20025;-84
2022/09/21 05:39:49;;;;;;;3.92;2.00;;;6.10;99.90;;;;;;5053952;28;20051;-84
2022/09/21 05:42:15;;;;;;;5.70;4.78;;;6.20;99.90;;;;;;5036110;28;20370;-84
2022/09/21 05:44:41;;;;;;;8.93;7.18;;;6.20;99.90;;;;;;5055984;28;20112;-84
2022/09/21 05:47:30;;;;;;;12.65;10.30;;;6.20;99.90;;;;;;5038028;28;20021;-84
2022/09/21 05:50:14;;;;;;;5.30;4.38;;;6.10;99.90;;;;;;5051311;28;20504;-84
2022/09/21 05:52:56;;;;;;;5.70;3.53;;;6.00;99.90;;;;;;5072487;28;20036;-84
2022/09/21 05:55:56;;;;;;;3.78;2.85;;;5.90;99.90;;;;;;5069112;28;20024;-84
2022/09/21 05:58:45;;;;;;;4.57;2.78;;;5.80;99.90;;;;;;5039093;28;20024;-84
2022/09/21 06:01:49;;;;;;;5.65;3.00;;;5.80;99.90;;;;;;5052881;28;20492;-84
2022/09/21 06:04:15;;;;;;;7.97;5.18;;;5.70;99.90;;;;;;5052814;28;20036;-84
2022/09/21 06:06:41;;;;;;;5.60;3.25;;;5.70;99.90;;;;;;5053708;28;20050;-84
2022/09/21 06:09:07;;;;;;;5.15;2.58;;;5.70;99.90;;;;;;5037689;28;20043;-84
2022/09/21 06:11:33;;;;;;;4.80;2.75;;;5.70;99.90;;;;;;5037440;28;20024;-84
2022/09/21 06:14:00;;;;;;;4.40;2.88;;;5.70;99.90;;;;;;5053244;28;20100;-84
2022/09/21 06:16:26;;;;;;;3.88;2.63;;;5.70;99.90;;;;;;5053527;28;20035;-84
2022/09/21 06:18:52;;;;;;;5.13;2.95;;;5.70;99.90;;;;;;5053102;28;20029;-84
2022/09/21 06:21:17;;;;;;;3.45;2.35;;;5.70;99.90;;;;;;5019975;28;20066;-84
2022/09/21 06:23:43;;;;;;;4.13;2.45;;;5.80;99.90;;;;;;5054733;28;20365;-84
2022/09/21 06:26:09;;;;;;;5.10;2.70;;;5.90;99.90;;;;;;5022075;28;20191;-84
2022/09/21 06:28:34;;;;;;;3.33;2.25;;;6.00;99.90;;;;;;5037254;28;20044;-84
2022/09/21 06:31:00;;;;;;;3.17;2.17;;;6.00;99.90;;;;;;5053903;28;20020;-84
2022/09/21 06:33:26;;;;;;;4.03;2.65;;;6.10;99.90;;;;;;5022100;28;20158;-84
2022/09/21 06:35:53;;;;;;;5.15;2.70;;;6.20;99.90;;;;;;5021282;28;20438;-84
2022/09/21 06:38:18;;;;;;;5.25;2.70;;;6.20;99.90;;;;;;5054456;28;20017;-84
2022/09/21 06:40:44;;;;;;;3.55;2.45;;;6.30;99.90;;;;;;5054710;28;20024;-84
2022/09/21 06:43:10;;;;;;;3.00;2.28;;;6.40;99.90;;;;;;5017892;28;20021;-84
2022/09/21 06:45:35;;;;;;;3.92;2.50;;;6.40;99.90;;;;;;5034619;28;20120;-84
2022/09/21 06:48:01;;;;;;;4.00;2.55;;;6.50;99.90;;;;;;5035299;28;20063;-84
2022/09/21 06:50:27;;;;;;;4.63;2.83;;;6.60;99.90;;;;;;5034040;28;20549;-84
2022/09/21 06:52:53;;;;;;;4.32;2.78;;;6.70;99.90;;;;;;5072107;28;20565;-84
2022/09/21 06:55:19;;;;;;;7.53;4.28;;;6.70;99.90;;;;;;5054508;28;20121;-84
2022/09/21 06:57:45;;;;;;;6.57;3.60;;;6.80;99.90;;;;;;5054563;28;20024;-84
2022/09/21 07:00:12;;;;;;;8.43;5.55;;;6.90;99.90;;;;;;5053147;28;20025;-83
2022/09/21 07:02:41;;;;;;;9.75;6.63;;;7.00;99.90;;;;;;5054312;28;20024;-84
2022/09/21 07:05:07;;;;;;;8.27;6.13;;;7.10;99.90;;;;;;5053779;28;20388;-84
2022/09/21 07:07:33;;;;;;;10.07;6.15;;;7.10;99.90;;;;;;5037042;28;20032;-84
2022/09/21 07:09:59;;;;;;;14.13;8.38;;;7.20;99.90;;;;;;5037153;28;20167;-84
2022/09/21 07:12:33;;;;;;;12.38;8.73;;;7.30;99.90;;;;;;5053029;28;20028;-84
2022/09/21 07:14:59;;;;;;;11.88;8.63;;;7.30;99.90;;;;;;5054358;28;20499;-84
2022/09/21 07:17:26;;;;;;;11.02;7.75;;;7.40;99.90;;;;;;5054345;28;20109;-84
2022/09/21 07:19:51;;;;;;;11.73;7.65;;;7.50;99.90;;;;;;5038399;28;20028;-84
2022/09/21 07:22:17;;;;;;;10.13;6.32;;;7.60;99.90;;;;;;5054975;28;20036;-84
2022/09/21 07:24:43;;;;;;;10.45;6.75;;;7.70;99.90;;;;;;5021255;28;20032;-84
2022/09/21 07:27:08;;;;;;;9.98;7.05;;;7.80;99.90;;;;;;5054101;28;20024;-84
2022/09/21 07:29:34;;;;;;;13.55;10.27;;;7.80;99.90;;;;;;5036388;28;20035;-84
2022/09/21 07:32:00;;;;;;;13.88;10.13;;;7.90;99.90;;;;;;5039303;28;20044;-84
2022/09/21 07:34:26;;;;;;;10.90;7.95;;;7.90;99.90;;;;;;5040405;28;20119;-84
2022/09/21 07:36:52;;;;;;;11.23;7.53;;;7.90;99.90;;;;;;5038760;28;20021;-84
2022/09/21 07:39:18;;;;;;;11.05;8.02;;;7.90;99.90;;;;;;5040016;28;20048;-84
2022/09/21 07:41:43;;;;;;;10.13;7.40;;;7.80;99.90;;;;;;5040457;28;20052;-84
2022/09/21 07:44:09;;;;;;;8.93;6.45;;;7.80;99.90;;;;;;5037703;28;20029;-83
2022/09/21 07:46:35;;;;;;;8.65;6.57;;;7.80;99.90;;;;;;5055531;28;20096;-84
2022/09/21 07:49:03;;;;;;;12.93;7.03;;;7.90;99.90;;;;;;5024812;28;20094;-83
2022/09/21 07:51:28;;;;;;;7.50;5.88;;;8.00;99.90;;;;;;5026260;28;20032;-84
2022/09/21 07:53:58;;;;;;;9.30;6.50;;;8.00;99.90;;;;;;5023934;28;20078;-83
2022/09/21 07:56:24;;;;;;;10.57;7.30;;;8.20;99.90;;;;;;5074137;28;20377;-84
2022/09/21 07:59:05;;;;;;;11.50;7.07;;;8.30;99.90;;;;;;5075908;28;20025;-84
2022/09/21 08:01:33;;;;;;;8.48;6.43;;;8.40;99.90;;;;;;5057874;28;20078;-84
2022/09/21 08:04:00;;;;;;;9.63;7.60;;;8.50;99.90;;;;;;5057812;28;20032;-84
2022/09/21 08:06:29;;;;;;;10.20;7.45;;;8.60;99.90;;;;;;5075683;28;20090;-84
2022/09/21 08:08:55;;;;;;;9.27;6.75;;;8.80;99.90;;;;;;5075984;28;20399;-82
2022/09/21 08:11:22;;;;;;;10.73;7.20;;;8.80;99.90;;;;;;5057639;28;20025;-83
2022/09/21 08:13:52;;;;;;;13.02;8.38;;;8.90;99.90;;;;;;5056449;28;20036;-83
2022/09/21 08:16:18;;;;;;;10.30;6.88;;;9.00;99.90;;;;;;5039540;28;20025;-83
2022/09/21 08:18:43;;;;;;;10.90;6.53;;;9.00;99.90;;;;;;5057836;28;20028;-82
2022/09/21 08:21:10;;;;;;;9.10;5.97;;;9.10;99.90;;;;;;5056034;28;20056;-83
2022/09/21 08:23:39;;;;;;;9.70;6.60;;;9.10;99.90;;;;;;5057329;28;20062;-82
2022/09/21 08:26:06;;;;;;;9.60;6.68;;;9.20;99.90;;;;;;5057490;28;20112;-83
2022/09/21 08:28:35;;;;;;;12.45;9.10;;;9.30;99.90;;;;;;5075812;28;20504;-82
2022/09/21 08:31:02;;;;;;;12.43;9.13;;;9.40;99.90;;;;;;5054307;28;20054;-82
2022/09/21 08:33:28;;;;;;;12.05;8.50;;;9.50;99.90;;;;;;5040450;28;20044;-82
2022/09/21 08:35:55;;;;;;;9.65;8.07;;;9.50;99.90;;;;;;5039557;28;20484;-82
2022/09/21 08:38:21;;;;;;;12.23;8.45;;;9.60;99.90;;;;;;5056492;28;20066;-83
2022/09/21 08:40:49;;;;;;;12.75;8.30;;;9.70;99.90;;;;;;5057366;28;20472;-82
2022/09/21 08:43:38;;;;;;;12.25;8.40;;;9.80;99.90;;;;;;5057210;28;20051;-83
2022/09/21 08:46:18;;;;;;;12.80;8.45;;;10.00;99.90;;;;;;5075364;28;20388;-82
2022/09/21 08:48:58;;;;;;;9.60;7.10;;;10.10;99.90;;;;;;5075231;28;20079;-83
2022/09/21 08:51:29;;;;;;;9.15;6.40;;;10.30;99.90;;;;;;5054379;28;20388;-82
2022/09/21 08:54:02;;;;;;;8.45;6.18;;;10.40;99.90;;;;;;5059983;28;20027;-83
2022/09/21 08:56:29;;;;;;;9.18;6.18;;;10.60;99.90;;;;;;5074066;28;20029;-83
2022/09/21 08:58:55;;;;;;;8.52;5.70;;;10.70;99.90;;;;;;5056004;28;20029;-82
2022/09/21 09:01:40;;;;;;;8.20;5.32;;;10.70;99.90;;;;;;5022166;28;20561;-82
2022/09/21 09:04:20;;;;;;;4.60;2.90;;;10.90;99.90;;;;;;5054579;28;20522;-82
2022/09/21 09:07:23;;;;;;;4.07;2.30;;;11.00;99.90;;;;;;5073108;28;20029;-82
2022/09/21 09:10:01;;;;;;;4.10;2.08;;;11.10;99.90;;;;;;5055458;28;20074;-82
2022/09/21 09:12:36;;;;;;;2.78;1.80;;;11.30;99.90;;;;;;5053175;28;20384;-82
2022/09/21 09:15:22;;;;;;;4.10;1.90;;;11.40;99.90;;;;;;5073327;23;20398;-73
2022/09/21 09:18:08;;;;;;;3.33;1.33;;;11.50;99.90;;;;;;5094766;28;20070;-72
2022/09/21 09:20:45;;;;;;;2.95;1.20;;;11.60;99.90;;;;;;5095062;28;20023;-73
2022/09/21 09:23:31;;;;;;;2.60;1.20;;;11.60;99.90;;;;;;5095207;28;20467;-73
2022/09/21 09:26:20;;;;;;;2.65;1.20;;;11.70;99.90;;;;;;5094874;28;20032;-73
2022/09/21 09:29:15;;;;;;;3.20;1.00;;;11.80;99.90;;;;;;5094464;28;20039;-72
2022/09/21 09:31:41;;;;;;;2.03;0.80;;;11.90;99.90;;;;;;5092149;28;20509;-68
2022/09/21 09:34:27;;;;;;;2.00;0.80;;;12.00;99.90;;;;;;5094300;28;20039;-68
2022/09/21 09:37:11;;;;;;;2.88;0.80;;;12.10;99.90;;;;;;5094627;28;20472;-68
2022/09/21 09:39:38;;;;;;;3.20;0.70;;;12.10;99.90;;;;;;5094480;28;20024;-68
2022/09/21 09:42:15;;;;;;;1.48;0.60;;;12.20;99.90;;;;;;5076316;28;20376;-68
2022/09/21 09:45:02;;;;;;;1.30;0.55;;;12.40;99.90;;;;;;5094472;28;20031;-68
2022/09/21 09:47:49;;;;;;;2.30;0.60;;;12.50;99.90;;;;;;5094413;28;20103;-68
2022/09/21 09:50:27;;;;;;;1.25;0.60;;;12.70;99.90;;;;;;5094178;28;20020;-68
2022/09/21 09:53:04;;;;;;;1.60;0.60;;;12.80;99.90;;;;;;5094119;28;20028;-68
2022/09/21 09:55:39;;;;;;;3.25;0.80;;;12.90;99.80;;;;;;5094406;28;20024;-68
2022/09/21 09:58:31;;;;;;;1.95;0.60;;;13.00;99.30;;;;;;5094764;28;20367;-67
2022/09/21 10:00:57;;;;;;;2.08;0.60;;;13.10;99.90;;;;;;5051767;28;20028;-68
2022/09/21 10:03:25;;;;;;;1.92;0.60;;;13.30;99.90;;;;;;5093861;28;20095;-68
2022/09/21 10:05:51;;;;;;;4.38;1.15;;;13.40;99.50;;;;;;5094411;28;20503;-68
2022/09/21 10:08:35;;;;;;;0.90;0.50;;;13.50;97.80;;;;;;5094243;28;20043;-68
2022/09/21 10:11:02;;;;;;;1.38;0.40;;;13.60;99.80;;;;;;5093918;28;20020;-68
2022/09/21 10:13:30;;;;;;;0.95;0.50;;;13.60;97.90;;;;;;5093885;28;20028;-68
2022/09/21 10:16:30;;;;;;;1.20;0.50;;;13.70;98.10;;;;;;5093708;28;20024;-68
2022/09/21 10:19:00;;;;;;;0.73;0.50;;;13.80;96.60;;;;;;5089364;28;20503;-68
2022/09/21 10:21:32;;;;;;;1.63;0.50;;;13.90;95.70;;;;;;5093583;28;20114;-68
2022/09/21 10:24:00;;;;;;;1.40;0.65;;;13.90;96.00;;;;;;5075774;28;20436;-68
2022/09/21 10:26:49;;;;;;;0.98;0.40;;;14.00;95.80;;;;;;5093718;28;20016;-68
2022/09/21 10:29:20;;;;;;;2.03;0.35;;;14.00;94.50;;;;;;5094008;28;20016;-68
2022/09/21 10:32:20;;;;;;;1.20;0.70;;;14.10;93.40;;;;;;5093953;28;20024;-68
2022/09/21 10:35:06;;;;;;;3.03;0.65;;;14.10;94.10;;;;;;5077980;28;20433;-68
2022/09/21 10:37:37;;;;;;;0.93;0.40;;;14.10;95.60;;;;;;5093480;28;20012;-68
2022/09/21 10:40:09;;;;;;;2.05;0.60;;;14.20;96.90;;;;;;5093396;28;20036;-67
2022/09/21 10:42:40;;;;;;;1.55;0.80;;;14.20;96.00;;;;;;5094040;28;20031;-67
2022/09/21 10:45:15;;;;;;;;;;;14.10;96.30;;;;;;5093854;28;20035;-68
2022/09/21 10:47:48;;;;;;;1.23;0.50;;;14.10;95.10;;;;;;5093382;28;19911;-68
2022/09/21 10:50:19;;;;;;;1.60;0.70;;;14.00;94.90;;;;;;5093009;28;20077;-68
2022/09/21 10:52:45;;;;;;;2.40;0.55;;;14.00;95.90;;;;;;5093854;28;20024;-68
2022/09/21 10:55:20;;;;;;;1.02;0.38;;;13.90;95.30;;;;;;5075140;28;20032;-68
2022/09/21 10:57:47;;;;;;;2.47;0.60;;;13.90;95.10;;;;;;5093238;28;20073;-68
2022/09/21 11:00:30;;;;;;;0.88;0.47;;;13.80;95.00;;;;;;5093361;28;20505;-68
2022/09/21 11:02:59;;;;;;;0.68;0.38;;;13.80;96.10;;;;;;5093276;28;20032;-68
2022/09/21 11:05:39;;;;;;;1.33;0.40;;;13.90;95.20;;;;;;5093512;28;20028;-68
2022/09/21 11:08:21;;;;;;;1.27;0.60;;;13.90;95.30;;;;;;5097986;28;20055;-68
2022/09/21 11:11:02;;;;;;;1.33;0.50;;;14.00;96.30;;;;;;5097581;28;20466;-67
2022/09/21 11:13:37;;;;;;;3.20;0.52;;;14.20;94.60;;;;;;5086062;28;20020;-68
2022/09/21 11:16:35;;;;;;;1.20;0.60;;;14.40;95.00;;;;;;5072515;28;20032;-68
2022/09/21 11:19:30;;;;;;;1.13;0.60;;;14.50;94.90;;;;;;5057151;28;20021;-68
2022/09/21 11:22:24;;;;;;;1.80;0.50;;;14.50;93.90;;;;;;5075234;28;20419;-70
2022/09/21 11:25:08;;;;;;;1.45;0.30;;;14.60;93.20;;;;;;5055200;28;20040;-68
2022/09/21 11:27:38;;;;;;;1.38;0.45;;;14.60;90.40;;;;;;5056715;28;20391;-68
2022/09/21 11:30:13;;;;;;;0.45;0.30;;;14.50;86.20;;;;;;5065775;28;20031;-68
2022/09/21 11:32:58;;;;;;;1.35;0.20;;;14.60;83.40;;;;;;5074996;28;20045;-68
2022/09/21 11:35:50;;;;;;;0.47;0.30;;;14.60;83.30;;;;;;5074074;28;20029;-70
2022/09/21 11:38:36;;;;;;;0.88;0.30;;;14.70;77.80;;;;;;5073277;28;20028;-69
2022/09/21 11:41:24;;;;;;;1.55;0.50;;;14.80;88.40;;;;;;5073417;28;20064;-68
2022/09/21 11:44:18;;;;;;;2.40;0.55;;;14.80;89.60;;;;;;5067631;28;20078;-71
2022/09/21 11:46:53;;;;;;;1.88;0.73;;;14.80;91.90;;;;;;5074161;28;20013;-70
2022/09/21 11:49:40;;;;;;;1.08;0.63;;;14.90;90.90;;;;;;5073652;28;20056;-69
2022/09/21 11:52:13;;;;;;;3.35;0.43;;;15.00;88.60;;;;;;5061814;28;20021;-70
2022/09/21 11:55:17;;;;;;;1.45;0.40;;;15.00;90.90;;;;;;5069976;28;20111;-70
2022/09/21 11:58:02;;;;;;;2.78;0.40;;;15.10;87.10;;;;;;5071698;28;20016;-68
2022/09/21 12:00:44;;;;;;;0.50;0.30;;;15.10;86.50;;;;;;5055529;28;20036;-69
2022/09/21 12:03:28;;;;;;;;;;;15.10;82.70;;;;;;5036568;28;20029;-69
2022/09/21 12:06:15;;;;;;;2.35;0.38;;;15.10;83.60;;;;;;5036317;28;19905;-71
2022/09/21 12:09:00;;;;;;;1.58;0.40;;;15.10;87.00;;;;;;5054079;28;20031;-70
2022/09/21 12:11:52;;;;;;;0.55;0.25;;;15.10;82.80;;;;;;5054005;28;20029;-70
2022/09/21 12:14:32;;;;;;;1.15;0.40;;;15.00;83.20;;;;;;5054678;28;20036;-71
2022/09/21 12:17:07;;;;;;;1.13;0.40;;;15.00;80.60;;;;;;5054689;28;20024;-70
2022/09/21 12:19:42;;;;;;;0.68;0.32;;;15.00;79.20;;;;;;5059228;28;20028;-69
2022/09/21 12:22:38;;;;;;;0.50;0.30;;;15.00;80.10;;;;;;5096068;28;20024;-71
2022/09/21 12:25:12;;;;;;;0.63;0.20;;;15.10;79.10;;;;;;5077394;28;20031;-70
2022/09/21 12:27:41;;;;;;;0.82;0.32;;;15.20;81.20;;;;;;5094425;28;20506;-70
2022/09/21 12:30:15;;;;;;;1.05;0.35;;;15.20;76.20;;;;;;5096077;28;20055;-70
2022/09/21 12:32:49;;;;;;;0.70;0.30;;;15.30;79.90;;;;;;5096047;28;20467;-70
2022/09/21 12:35:21;;;;;;;1.35;0.40;;;15.30;77.60;;;;;;5095450;28;20468;-69
2022/09/21 12:38:00;;;;;;;0.73;0.30;;;15.30;77.50;;;;;;5095735;28;20020;-70
2022/09/21 12:40:46;;;;;;;2.25;0.25;;;15.40;77.80;;;;;;5095548;28;20039;-70
2022/09/21 12:43:33;;;;;;;1.30;0.47;;;15.50;79.40;;;;;;5095607;28;20494;-70
2022/09/21 12:46:29;;;;;;;0.32;0.20;;;15.60;76.60;;;;;;5095981;28;20367;-70
2022/09/21 12:48:58;;;;;;;0.43;0.20;;;15.60;76.60;;;;;;5094595;28;20032;-70
2022/09/21 12:51:31;;;;;;;0.55;0.28;;;15.70;75.80;;;;;;5095361;28;20028;-70
2022/09/21 12:54:00;;;;;;;0.57;0.30;;;15.60;73.30;;;;;;5095652;28;20024;-68
2022/09/21 12:56:48;;;;;;;0.57;0.20;;;15.60;72.40;;;;;;5095388;28;20027;-69
2022/09/21 12:59:48;;;;;;;2.25;0.50;;;15.70;73.50;;;;;;5095355;28;20032;-70
2022/09/21 13:02:33;;;;;;;1.48;0.20;;;15.70;71.70;;;;;;5095603;28;20023;-70
2022/09/21 13:05:22;;;;;;;0.13;0.13;;;15.70;70.00;;;;;;5095557;28;20372;-70
2022/09/21 13:07:57;;;;;;;0.40;0.30;;;15.80;69.10;;;;;;5095521;28;20439;-70
2022/09/21 13:10:50;;;;;;;0.30;0.20;;;15.80;72.00;;;;;;5095197;28;20494;-70
2022/09/21 13:13:23;;;;;;;1.02;0.22;;;15.70;68.70;;;;;;5095047;28;20047;-69
2022/09/21 13:15:50;;;;;;;0.30;0.13;;;15.80;70.90;;;;;;5094936;28;20387;-69
2022/09/21 13:18:22;;;;;;;2.25;0.30;;;15.80;70.30;;;;;;5076815;28;20098;-70
2022/09/21 13:20:51;;;;;;;0.65;0.30;;;16.00;68.80;;;;;;5094620;28;20048;-68
2022/09/21 13:24:00;;;;;;;0.93;0.40;;;16.00;67.30;;;;;;5095431;28;20024;-69
2022/09/21 13:26:31;;;;;;;0.38;0.20;;;16.00;71.80;;;;;;5085352;28;20032;-69